Time;durP1;ratioP1;P1;durP2;ratioP2;P2;SDS_P1;SDS_P2;PMS_P1;PMS_P2;Temp;Humidity;BMP_temperature;BMP_pressure;BME280_temperature;BME280_humidity;BME280_pressure;Samples;Min_cycle;Max_cycle;Signal;HPM_P1;HPM_P2
2022/07/26 00:00:23;;;;;;;15.00;4.00;;;18.50;99.90;;;;;;5072079;28;20068;-60
2022/07/26 00:02:49;;;;;;;21.45;4.10;;;18.50;99.90;;;;;;5055107;28;20048;-60
2022/07/26 00:05:16;;;;;;;14.13;3.20;;;18.50;99.90;;;;;;5052157;28;20095;-60
2022/07/26 00:07:42;;;;;;;16.40;3.22;;;18.50;99.90;;;;;;5063342;28;20095;-61
2022/07/26 00:10:09;;;;;;;14.20;3.88;;;18.50;99.90;;;;;;5060003;28;20409;-60
2022/07/26 00:12:35;;;;;;;11.95;3.28;;;18.50;99.90;;;;;;5070175;28;20044;-60
2022/07/26 00:15:02;;;;;;;13.38;3.08;;;18.50;99.90;;;;;;5069134;28;20050;-60
2022/07/26 00:17:27;;;;;;;17.88;3.00;;;18.50;99.90;;;;;;5057824;28;20055;-61
2022/07/26 00:19:53;;;;;;;12.20;2.78;;;18.50;99.90;;;;;;5035057;28;20070;-61
2022/07/26 00:22:34;;;;;;;16.10;3.17;;;18.50;99.90;;;;;;5034202;28;20067;-61
2022/07/26 00:25:02;;;;;;;13.88;2.88;;;18.50;99.90;;;;;;5050458;28;20131;-60
2022/07/26 00:27:28;;;;;;;11.93;2.65;;;18.50;99.90;;;;;;5054426;28;20040;-60
2022/07/26 00:29:54;;;;;;;9.65;2.78;;;18.50;99.90;;;;;;5047341;28;20068;-60
2022/07/26 00:32:20;;;;;;;12.70;3.33;;;18.50;99.90;;;;;;5075877;28;20041;-60
2022/07/26 00:34:45;;;;;;;11.10;3.17;;;18.50;99.90;;;;;;5053443;28;20559;-61
2022/07/26 00:37:11;;;;;;;10.85;2.97;;;18.50;99.90;;;;;;5056891;28;20124;-60
2022/07/26 00:39:37;;;;;;;9.68;2.80;;;18.50;99.90;;;;;;5071838;28;20119;-60
2022/07/26 00:42:03;;;;;;;9.23;2.67;;;18.50;99.90;;;;;;5068919;28;20868;-60
2022/07/26 00:44:39;;;;;;;9.80;2.92;;;18.50;99.90;;;;;;5076105;28;20048;-61
2022/07/26 00:47:05;;;;;;;15.57;2.75;;;18.50;99.90;;;;;;5038371;28;20111;-60
2022/07/26 00:49:31;;;;;;;7.43;2.47;;;18.50;99.90;;;;;;5076741;28;20063;-61
2022/07/26 00:51:57;;;;;;;11.70;3.25;;;18.50;99.90;;;;;;5069672;28;20127;-61
2022/07/26 00:54:23;;;;;;;7.25;2.60;;;18.50;99.90;;;;;;5039914;28;20052;-61
2022/07/26 00:56:49;;;;;;;10.38;3.00;;;18.50;99.90;;;;;;5069448;28;20095;-61
2022/07/26 00:59:15;;;;;;;9.15;2.90;;;18.50;99.90;;;;;;5063473;28;20044;-60
2022/07/26 01:01:41;;;;;;;10.15;3.72;;;18.50;99.90;;;;;;5072462;28;20048;-61
2022/07/26 01:04:07;;;;;;;11.45;3.17;;;18.50;99.90;;;;;;5076116;28;20048;-60
2022/07/26 01:06:33;;;;;;;10.48;3.03;;;18.50;99.90;;;;;;5043801;28;20135;-60
2022/07/26 01:08:59;;;;;;;15.45;3.53;;;18.50;99.90;;;;;;5045752;28;20044;-60
2022/07/26 01:11:26;;;;;;;11.88;2.97;;;18.40;99.90;;;;;;5069124;28;20052;-60
2022/07/26 01:13:51;;;;;;;8.63;3.03;;;18.40;99.90;;;;;;5075131;28;20042;-60
2022/07/26 01:16:17;;;;;;;10.10;2.53;;;18.40;99.90;;;;;;5049015;28;20040;-60
2022/07/26 01:18:43;;;;;;;9.43;2.58;;;18.40;99.90;;;;;;5071793;28;20087;-61
2022/07/26 01:21:10;;;;;;;9.25;3.15;;;18.40;99.90;;;;;;5073039;28;20058;-61
2022/07/26 01:23:36;;;;;;;9.10;2.90;;;18.40;99.90;;;;;;5071770;28;20058;-60
2022/07/26 01:26:03;;;;;;;10.15;3.00;;;18.40;99.90;;;;;;5059980;28;20055;-61
2022/07/26 01:28:29;;;;;;;11.43;3.13;;;18.40;99.90;;;;;;5071902;28;20103;-59
2022/07/26 01:30:55;;;;;;;8.77;2.67;;;18.40;99.90;;;;;;5053247;28;20094;-61
2022/07/26 01:33:21;;;;;;;8.75;2.50;;;18.30;99.90;;;;;;5074086;28;20052;-61
2022/07/26 01:35:47;;;;;;;6.90;2.83;;;18.40;99.90;;;;;;5058007;28;20040;-59
2022/07/26 01:38:13;;;;;;;12.95;2.90;;;18.30;99.90;;;;;;5054689;28;20043;-60
2022/07/26 01:40:39;;;;;;;9.50;2.80;;;18.30;99.90;;;;;;5069599;28;20052;-61
2022/07/26 01:43:05;;;;;;;9.70;2.85;;;18.30;99.90;;;;;;5060656;28;20082;-61
2022/07/26 01:45:31;;;;;;;11.48;2.85;;;18.30;99.90;;;;;;5071730;28;20072;-61
2022/07/26 01:47:56;;;;;;;7.38;2.80;;;18.30;99.90;;;;;;5054987;28;20123;-60
2022/07/26 01:50:22;;;;;;;7.85;2.65;;;18.20;99.90;;;;;;5070314;28;20379;-59
2022/07/26 01:52:48;;;;;;;7.95;2.50;;;18.20;99.90;;;;;;5069690;28;20487;-60
2022/07/26 01:55:14;;;;;;;14.82;2.97;;;18.20;99.90;;;;;;5055073;28;20040;-60
2022/07/26 01:57:39;;;;;;;9.43;2.92;;;18.20;99.90;;;;;;5050701;28;20766;-60
2022/07/26 02:00:07;;;;;;;6.13;2.55;;;18.20;99.90;;;;;;5066851;28;20074;-61
2022/07/26 02:02:32;;;;;;;8.13;2.97;;;18.20;99.90;;;;;;5053067;28;20044;-60
2022/07/26 02:04:58;;;;;;;5.57;2.47;;;18.20;99.90;;;;;;5048245;28;20044;-61
2022/07/26 02:07:26;;;;;;;4.80;2.40;;;18.20;99.90;;;;;;5054535;28;20051;-60
2022/07/26 02:09:51;;;;;;;6.90;2.58;;;18.20;99.90;;;;;;5039075;28;20449;-60
2022/07/26 02:12:17;;;;;;;6.70;2.80;;;18.20;99.90;;;;;;5067939;28;20040;-60
2022/07/26 02:14:43;;;;;;;9.75;3.00;;;18.20;99.90;;;;;;5065188;28;20528;-60
2022/07/26 02:17:09;;;;;;;10.93;3.17;;;18.20;99.90;;;;;;5068874;28;20742;-60
2022/07/26 02:19:35;;;;;;;10.52;2.85;;;18.20;99.90;;;;;;5054495;28;20063;-60
2022/07/26 02:22:01;;;;;;;14.77;3.50;;;18.20;99.90;;;;;;5075685;28;20049;-59
2022/07/26 02:24:28;;;;;;;11.57;3.00;;;18.10;99.90;;;;;;5072196;28;20097;-58
2022/07/26 02:26:58;;;;;;;8.00;2.38;;;18.00;99.90;;;;;;5057854;28;20043;-59
2022/07/26 02:29:24;;;;;;;5.13;1.73;;;18.00;99.90;;;;;;5068299;28;20052;-58
2022/07/26 02:31:51;;;;;;;6.07;1.77;;;17.90;99.90;;;;;;5056874;28;20483;-58
2022/07/26 02:34:17;;;;;;;4.80;1.90;;;17.80;99.90;;;;;;5070216;28;20518;-59
2022/07/26 02:36:43;;;;;;;4.63;1.92;;;17.70;99.90;;;;;;5073290;28;20036;-59
2022/07/26 02:39:10;;;;;;;6.03;2.22;;;17.60;99.90;;;;;;5071390;28;20044;-60
2022/07/26 02:41:35;;;;;;;8.20;2.03;;;17.60;99.90;;;;;;5070844;28;20044;-59
2022/07/26 02:44:01;;;;;;;6.28;1.98;;;17.60;99.90;;;;;;5072961;28;20056;-58
2022/07/26 02:46:27;;;;;;;7.32;2.38;;;17.50;99.90;;;;;;5071051;28;20406;-59
2022/07/26 02:48:53;;;;;;;9.40;2.45;;;17.50;99.90;;;;;;5068559;28;20044;-59
2022/07/26 02:51:19;;;;;;;7.78;2.13;;;17.50;99.90;;;;;;5068911;28;20118;-59
2022/07/26 02:53:45;;;;;;;7.15;2.40;;;17.50;99.90;;;;;;5074974;28;20079;-59
2022/07/26 02:56:10;;;;;;;9.20;2.55;;;17.50;99.90;;;;;;5051773;28;20136;-59
2022/07/26 02:58:37;;;;;;;10.75;2.47;;;17.50;99.90;;;;;;5065484;28;20727;-59
2022/07/26 03:01:03;;;;;;;10.00;2.15;;;17.50;99.90;;;;;;5069345;28;20044;-59
2022/07/26 03:03:29;;;;;;;9.00;2.58;;;17.50;99.90;;;;;;5068232;28;20119;-60
2022/07/26 03:05:55;;;;;;;8.40;2.30;;;17.50;99.90;;;;;;5052140;28;20188;-60
2022/07/26 03:08:21;;;;;;;9.15;2.10;;;17.40;99.90;;;;;;5068562;28;20372;-59
2022/07/26 03:10:47;;;;;;;15.63;2.58;;;17.40;99.90;;;;;;5072597;28;20040;-59
2022/07/26 03:13:13;;;;;;;7.88;1.90;;;17.40;99.90;;;;;;5066425;28;20377;-60
2022/07/26 03:15:39;;;;;;;8.57;1.70;;;17.40;99.90;;;;;;5048717;28;20043;-60
2022/07/26 03:18:04;;;;;;;8.73;1.67;;;17.40;99.90;;;;;;5069957;28;20045;-59
2022/07/26 03:20:30;;;;;;;6.60;1.50;;;17.40;99.90;;;;;;5069531;28;20186;-59
2022/07/26 03:22:56;;;;;;;7.82;1.40;;;17.40;99.90;;;;;;5056438;28;20602;-59
2022/07/26 03:25:22;;;;;;;8.05;1.92;;;17.40;99.90;;;;;;5045451;28;20056;-59
2022/07/26 03:27:48;;;;;;;10.27;1.85;;;17.30;99.90;;;;;;5072817;28;20114;-60
2022/07/26 03:30:14;;;;;;;6.88;1.42;;;17.30;99.90;;;;;;5051602;28;20049;-59
2022/07/26 03:32:40;;;;;;;9.38;1.65;;;17.30;99.90;;;;;;5071917;28;20044;-59
2022/07/26 03:35:07;;;;;;;11.10;1.85;;;17.30;99.90;;;;;;5073739;28;20116;-59
2022/07/26 03:37:33;;;;;;;7.00;1.45;;;17.30;99.90;;;;;;5069375;28;20051;-59
2022/07/26 03:39:59;;;;;;;8.13;1.50;;;17.30;99.90;;;;;;5051536;28;20107;-59
2022/07/26 03:42:25;;;;;;;5.47;1.27;;;17.30;99.90;;;;;;5070533;28;20143;-58
2022/07/26 03:44:50;;;;;;;5.63;1.40;;;17.20;99.90;;;;;;5067227;28;20052;-59
2022/07/26 03:47:16;;;;;;;6.07;1.42;;;17.20;99.90;;;;;;5068526;28;20208;-60
2022/07/26 03:49:42;;;;;;;5.95;1.60;;;17.20;99.90;;;;;;5069533;28;20048;-59
2022/07/26 03:52:09;;;;;;;5.63;1.40;;;17.20;99.90;;;;;;5066906;28;20082;-59
2022/07/26 03:54:35;;;;;;;4.55;1.00;;;17.20;99.90;;;;;;5073940;28;20045;-59
2022/07/26 03:57:01;;;;;;;5.80;1.33;;;17.10;99.90;;;;;;5071002;28;20036;-59
2022/07/26 03:59:27;;;;;;;11.70;1.33;;;17.20;99.90;;;;;;5071047;28;20078;-59
2022/07/26 04:01:53;;;;;;;5.35;0.98;;;17.20;99.90;;;;;;5063069;28;20545;-58
2022/07/26 04:04:19;;;;;;;5.90;1.40;;;17.10;99.90;;;;;;5054309;28;20055;-59
2022/07/26 04:06:46;;;;;;;12.80;1.60;;;17.10;99.90;;;;;;5055575;28;20048;-60
2022/07/26 04:09:13;;;;;;;5.05;1.27;;;17.20;99.90;;;;;;5052801;28;20043;-59
2022/07/26 04:11:39;;;;;;;10.43;1.13;;;17.10;99.90;;;;;;5075206;28;20082;-59
2022/07/26 04:14:05;;;;;;;4.22;1.08;;;17.10;99.90;;;;;;5075595;28;20040;-59
2022/07/26 04:16:31;;;;;;;5.72;1.40;;;17.10;99.90;;;;;;5069042;28;20071;-59
2022/07/26 04:18:57;;;;;;;7.00;1.92;;;17.10;99.90;;;;;;5069420;28;20119;-60
2022/07/26 04:21:23;;;;;;;3.67;1.15;;;17.10;99.90;;;;;;5068710;28;20049;-60
2022/07/26 04:23:49;;;;;;;5.53;1.10;;;17.10;99.90;;;;;;5072310;28;20101;-60
2022/07/26 04:26:15;;;;;;;6.55;0.93;;;17.10;99.90;;;;;;5075359;28;20056;-60
2022/07/26 04:28:42;;;;;;;4.60;1.23;;;17.10;99.90;;;;;;5052705;28;20122;-60
2022/07/26 04:31:08;;;;;;;7.20;1.13;;;17.00;99.90;;;;;;5063165;28;20071;-60
2022/07/26 04:33:34;;;;;;;7.80;1.20;;;17.00;99.90;;;;;;5071000;28;20048;-60
2022/07/26 04:36:01;;;;;;;8.20;1.08;;;16.90;99.90;;;;;;5050159;28;20055;-60
2022/07/26 04:38:27;;;;;;;6.43;1.10;;;16.90;99.90;;;;;;5074659;28;20044;-60
2022/07/26 04:40:53;;;;;;;6.22;1.25;;;16.90;99.90;;;;;;5052380;28;20029;-60
2022/07/26 04:43:19;;;;;;;7.55;1.20;;;16.80;99.90;;;;;;5073392;28;20044;-60
2022/07/26 04:45:45;;;;;;;8.13;1.50;;;16.80;99.90;;;;;;5038615;28;20044;-59
2022/07/26 04:48:12;;;;;;;2.53;0.95;;;16.80;99.90;;;;;;5071916;28;20032;-59
2022/07/26 04:50:38;;;;;;;6.57;1.42;;;16.80;99.90;;;;;;5072416;28;20095;-60
2022/07/26 04:53:04;;;;;;;7.22;1.30;;;16.90;99.90;;;;;;5071009;28;20134;-60
2022/07/26 04:55:30;;;;;;;7.57;1.25;;;16.90;99.90;;;;;;5069491;28;20045;-60
2022/07/26 04:57:56;;;;;;;5.68;1.25;;;16.90;99.90;;;;;;5052552;28;20071;-60
2022/07/26 05:00:23;;;;;;;5.07;1.00;;;16.90;99.90;;;;;;5053972;28;20053;-59
2022/07/26 05:02:55;;;;;;;4.47;0.85;;;16.90;99.90;;;;;;5055773;28;20067;-59
2022/07/26 05:05:22;;;;;;;5.32;0.98;;;16.90;99.90;;;;;;5073680;28;20089;-59
2022/07/26 05:07:51;;;;;;;6.90;1.20;;;16.90;99.90;;;;;;5069471;28;20052;-60
2022/07/26 05:10:18;;;;;;;5.90;1.20;;;16.90;99.90;;;;;;5065073;28;20040;-60
2022/07/26 05:12:48;;;;;;;3.90;0.98;;;16.90;99.90;;;;;;5052265;28;20052;-59
2022/07/26 05:15:14;;;;;;;4.95;1.02;;;16.90;99.90;;;;;;5067729;28;20037;-59
2022/07/26 05:17:42;;;;;;;5.60;0.90;;;16.90;99.90;;;;;;5066830;28;20079;-60
2022/07/26 05:20:10;;;;;;;5.60;0.98;;;16.90;99.90;;;;;;5075018;28;20559;-59
2022/07/26 05:22:36;;;;;;;5.75;1.27;;;16.90;99.90;;;;;;5073896;28;20045;-59
2022/07/26 05:25:04;;;;;;;7.10;0.90;;;16.80;99.90;;;;;;5070670;28;20110;-59
2022/07/26 05:27:29;;;;;;;4.30;0.98;;;16.80;99.90;;;;;;5068440;28;20076;-59
2022/07/26 05:29:55;;;;;;;8.25;1.10;;;16.70;99.90;;;;;;5067306;28;20565;-60
2022/07/26 05:32:22;;;;;;;4.50;1.15;;;16.60;99.90;;;;;;5033480;28;20545;-60
2022/07/26 05:34:49;;;;;;;7.70;1.20;;;16.60;99.90;;;;;;5062115;28;20036;-59
2022/07/26 05:37:15;;;;;;;8.50;1.30;;;16.50;99.90;;;;;;5066151;28;20079;-60
2022/07/26 05:39:40;;;;;;;3.50;1.00;;;16.50;99.90;;;;;;5065032;28;20131;-59
2022/07/26 05:42:06;;;;;;;2.65;0.80;;;16.50;99.90;;;;;;5070974;28;20148;-58
2022/07/26 05:44:32;;;;;;;7.45;1.30;;;16.40;99.90;;;;;;5071273;28;20048;-59
2022/07/26 05:46:58;;;;;;;7.68;1.20;;;16.50;99.90;;;;;;5055062;28;20040;-58
2022/07/26 05:49:27;;;;;;;9.07;1.77;;;16.50;99.90;;;;;;5073542;28;20047;-60
2022/07/26 05:51:52;;;;;;;3.00;1.13;;;16.50;99.90;;;;;;5057840;28;20055;-60
2022/07/26 05:54:20;;;;;;;8.38;1.10;;;16.60;99.90;;;;;;5056128;28;20466;-59
2022/07/26 05:56:46;;;;;;;4.22;1.05;;;16.60;99.90;;;;;;5054954;28;20048;-60
2022/07/26 05:59:12;;;;;;;4.57;0.90;;;16.70;99.90;;;;;;5071400;28;20040;-60
2022/07/26 06:01:38;;;;;;;3.97;1.00;;;16.70;99.90;;;;;;5068883;28;20052;-60
2022/07/26 06:04:04;;;;;;;7.28;1.25;;;16.80;99.90;;;;;;5073301;28;20572;-59
2022/07/26 06:06:30;;;;;;;6.25;1.02;;;16.80;99.90;;;;;;5056894;28;20139;-61
2022/07/26 06:08:56;;;;;;;5.32;1.10;;;16.90;99.90;;;;;;5060873;28;20048;-59
2022/07/26 06:11:22;;;;;;;7.15;1.42;;;16.90;99.90;;;;;;5029686;28;20063;-59
2022/07/26 06:13:48;;;;;;;7.88;1.20;;;16.90;99.90;;;;;;5063679;28;20040;-59
2022/07/26 06:16:14;;;;;;;8.57;1.17;;;17.00;99.90;;;;;;5036335;28;20304;-60
2022/07/26 06:18:39;;;;;;;6.10;1.42;;;17.00;99.90;;;;;;5067811;28;20072;-59
2022/07/26 06:21:06;;;;;;;6.00;1.27;;;17.00;99.90;;;;;;5074057;28;20544;-59
2022/07/26 06:23:32;;;;;;;7.57;1.63;;;17.00;99.90;;;;;;5059187;28;20090;-59
2022/07/26 06:25:58;;;;;;;8.70;1.33;;;16.90;99.90;;;;;;5072963;28;20425;-59
2022/07/26 06:28:24;;;;;;;10.68;1.40;;;16.80;99.90;;;;;;5056989;28;20044;-60
2022/07/26 06:30:50;;;;;;;7.13;1.65;;;16.70;99.90;;;;;;5072886;28;20048;-60
2022/07/26 06:33:15;;;;;;;6.53;1.30;;;16.70;99.90;;;;;;5070923;28;20489;-60
2022/07/26 06:35:41;;;;;;;5.65;1.00;;;16.70;99.90;;;;;;5054900;28;20040;-60
2022/07/26 06:38:07;;;;;;;8.15;1.35;;;16.70;99.90;;;;;;5056144;28;20077;-59
2022/07/26 06:40:33;;;;;;;6.95;1.45;;;16.70;99.90;;;;;;5061676;28;20135;-60
2022/07/26 06:43:01;;;;;;;9.20;1.23;;;16.80;99.90;;;;;;5064507;28;20051;-60
2022/07/26 06:45:28;;;;;;;7.20;1.10;;;16.90;99.90;;;;;;5071445;28;20059;-60
2022/07/26 06:47:54;;;;;;;4.03;0.85;;;17.00;99.90;;;;;;5066833;28;20055;-58
2022/07/26 06:50:20;;;;;;;4.63;1.00;;;17.10;99.90;;;;;;5047609;28;20042;-60
2022/07/26 06:52:45;;;;;;;7.00;1.00;;;17.20;99.90;;;;;;5043576;28;20041;-60
2022/07/26 06:55:11;;;;;;;6.88;1.15;;;17.20;99.90;;;;;;5041783;28;21909;-60
2022/07/26 06:57:37;;;;;;;6.18;0.95;;;17.30;99.90;;;;;;5064870;28;20580;-59
2022/07/26 07:00:06;;;;;;;11.98;1.38;;;17.30;99.90;;;;;;5038768;28;20397;-60
2022/07/26 07:02:31;;;;;;;5.60;1.30;;;17.30;99.90;;;;;;5047382;28;20506;-59
2022/07/26 07:04:57;;;;;;;6.53;1.23;;;17.30;99.90;;;;;;5068668;28;20582;-60
2022/07/26 07:07:23;;;;;;;10.73;1.15;;;17.20;99.90;;;;;;5054348;28;20611;-59
2022/07/26 07:09:49;;;;;;;4.32;1.33;;;17.20;99.90;;;;;;5061421;28;20055;-60
2022/07/26 07:12:15;;;;;;;4.38;0.98;;;17.20;99.90;;;;;;5043515;28;20049;-60
2022/07/26 07:14:41;;;;;;;8.45;1.38;;;17.30;99.90;;;;;;5063157;28;20051;-59
2022/07/26 07:17:08;;;;;;;8.68;1.45;;;17.50;99.90;;;;;;5037639;28;20092;-59
2022/07/26 07:19:35;;;;;;;7.60;1.45;;;17.60;99.90;;;;;;5059672;28;20040;-59
2022/07/26 07:22:02;;;;;;;12.82;1.95;;;17.60;99.90;;;;;;5054293;28;20758;-60
2022/07/26 07:24:28;;;;;;;3.72;1.13;;;17.70;99.90;;;;;;5053499;28;20371;-61
2022/07/26 07:26:54;;;;;;;6.13;1.42;;;17.80;99.90;;;;;;5042536;28;20052;-60
2022/07/26 07:29:20;;;;;;;6.82;1.33;;;17.80;99.90;;;;;;5030340;28;20052;-60
2022/07/26 07:31:47;;;;;;;7.85;1.10;;;17.90;99.90;;;;;;5027217;28;20057;-60
2022/07/26 07:34:17;;;;;;;8.52;1.40;;;18.00;99.90;;;;;;5062270;28;20123;-60
2022/07/26 07:36:43;;;;;;;8.75;1.75;;;18.10;99.90;;;;;;5065567;28;20048;-60
2022/07/26 07:39:09;;;;;;;10.38;1.70;;;18.10;99.90;;;;;;5066742;28;20659;-59
2022/07/26 07:41:37;;;;;;;8.77;1.60;;;17.90;99.90;;;;;;5063776;28;20512;-60
2022/07/26 07:44:04;;;;;;;11.90;1.83;;;17.80;99.90;;;;;;5053742;28;20690;-60
2022/07/26 07:46:30;;;;;;;9.90;1.70;;;17.70;99.90;;;;;;5048566;28;20044;-60
2022/07/26 07:48:58;;;;;;;10.27;1.90;;;17.60;99.90;;;;;;5056006;28;20488;-60
2022/07/26 07:51:25;;;;;;;5.80;1.58;;;17.60;99.90;;;;;;5065511;28;20071;-59
2022/07/26 07:53:51;;;;;;;6.10;1.35;;;17.60;99.90;;;;;;5072479;28;20044;-60
2022/07/26 07:56:16;;;;;;;5.10;1.50;;;17.60;99.90;;;;;;5066726;28;20051;-60
2022/07/26 07:58:42;;;;;;;7.18;1.13;;;17.60;99.90;;;;;;5062129;28;20157;-60
2022/07/26 08:01:08;;;;;;;5.82;1.00;;;17.60;99.90;;;;;;5063697;28;24754;-59
2022/07/26 08:03:34;;;;;;;5.70;1.05;;;17.60;99.90;;;;;;5047554;28;20052;-60
2022/07/26 08:06:01;;;;;;;4.90;1.20;;;17.60;99.90;;;;;;5063415;28;20055;-61
2022/07/26 08:08:27;;;;;;;4.15;1.20;;;17.60;99.90;;;;;;5067258;28;20048;-60
2022/07/26 08:10:53;;;;;;;5.68;1.25;;;17.70;99.90;;;;;;5052689;28;20044;-60
2022/07/26 08:13:20;;;;;;;10.00;1.40;;;17.80;99.90;;;;;;5066153;28;20045;-60
2022/07/26 08:15:46;;;;;;;7.18;1.23;;;17.90;99.90;;;;;;5064291;28;20057;-60
2022/07/26 08:18:12;;;;;;;6.50;1.45;;;18.10;99.90;;;;;;5065132;28;20059;-59
2022/07/26 08:20:38;;;;;;;8.55;1.50;;;18.30;99.90;;;;;;5047131;28;20087;-59
2022/07/26 08:23:04;;;;;;;9.02;1.98;;;18.40;99.90;;;;;;5062092;28;20043;-53
2022/07/26 08:25:29;;;;;;;6.80;1.77;;;18.50;99.60;;;;;;5068377;28;20044;-54
2022/07/26 08:27:56;;;;;;;7.95;1.65;;;18.50;99.40;;;;;;5073713;28;20043;-52
2022/07/26 08:30:22;;;;;;;9.48;1.80;;;18.60;99.20;;;;;;5072415;28;20060;-54
2022/07/26 08:32:47;;;;;;;7.45;2.03;;;18.60;99.20;;;;;;5074609;28;20052;-53
2022/07/26 08:35:13;;;;;;;9.88;1.70;;;18.60;99.40;;;;;;5073217;28;20055;-54
2022/07/26 08:37:39;;;;;;;8.43;1.80;;;18.50;99.70;;;;;;5073640;28;20048;-55
2022/07/26 08:40:06;;;;;;;6.82;1.60;;;18.40;99.90;;;;;;5070179;28;20062;-55
2022/07/26 08:42:32;;;;;;;6.70;1.60;;;18.40;99.90;;;;;;5070686;28;20488;-54
2022/07/26 08:44:58;;;;;;;8.25;1.90;;;18.50;99.90;;;;;;5074097;28;20126;-55
2022/07/26 08:47:24;;;;;;;8.25;1.52;;;18.60;99.60;;;;;;5073506;28;20056;-55
2022/07/26 08:49:50;;;;;;;7.75;1.73;;;18.70;98.80;;;;;;5073001;28;20102;-52
2022/07/26 08:52:16;;;;;;;8.88;1.95;;;18.70;98.30;;;;;;5072579;28;20074;-55
2022/07/26 08:54:43;;;;;;;8.23;2.03;;;18.70;98.40;;;;;;5055726;28;20063;-54
2022/07/26 08:57:09;;;;;;;12.20;2.30;;;18.70;98.30;;;;;;5073301;28;20651;-54
2022/07/26 08:59:35;;;;;;;15.73;2.05;;;18.50;98.20;;;;;;5071431;28;20478;-54
2022/07/26 09:02:12;;;;;;;11.23;2.10;;;18.40;98.10;;;;;;5074863;28;20055;-54
2022/07/26 09:04:46;;;;;;;12.68;2.55;;;18.30;98.00;;;;;;5071726;28;20122;-53
2022/07/26 09:07:15;;;;;;;12.50;2.30;;;18.30;98.10;;;;;;5075616;28;20045;-54
2022/07/26 09:10:04;;;;;;;7.85;2.30;;;18.30;97.90;;;;;;5055818;28;20478;-55
2022/07/26 09:12:32;;;;;;;14.50;2.30;;;18.30;97.70;;;;;;5071029;28;20052;-54
2022/07/26 09:14:59;;;;;;;13.70;2.13;;;18.30;97.50;;;;;;5075781;28;20047;-54
2022/07/26 09:17:43;;;;;;;14.18;2.70;;;18.30;97.60;;;;;;5073319;28;20052;-54
2022/07/26 09:20:11;;;;;;;10.68;2.50;;;18.30;97.40;;;;;;5075141;28;20501;-52
2022/07/26 09:22:54;;;;;;;16.85;2.58;;;18.30;97.50;;;;;;5072794;28;20049;-54
2022/07/26 09:25:21;;;;;;;11.63;2.33;;;18.30;97.70;;;;;;5070599;28;20044;-54
2022/07/26 09:27:47;;;;;;;15.27;2.58;;;18.40;97.60;;;;;;5068661;28;20124;-54
2022/07/26 09:30:13;;;;;;;17.25;2.85;;;18.40;97.10;;;;;;5072933;28;20183;-54
2022/07/26 09:32:39;;;;;;;21.25;3.45;;;18.50;97.00;;;;;;5072266;28;20104;-54
2022/07/26 09:35:16;;;;;;;15.80;2.60;;;18.50;96.80;;;;;;5069313;28;20405;-54
2022/07/26 09:37:43;;;;;;;16.30;3.05;;;18.50;96.40;;;;;;5073584;28;20545;-54
2022/07/26 09:40:12;;;;;;;14.25;2.95;;;18.50;96.20;;;;;;5070456;28;20124;-54
2022/07/26 09:42:56;;;;;;;14.95;2.22;;;18.50;96.00;;;;;;5070049;28;21177;-53
2022/07/26 09:45:23;;;;;;;14.57;2.85;;;18.50;95.90;;;;;;5073327;28;20048;-53
2022/07/26 09:47:48;;;;;;;15.07;2.20;;;18.50;95.50;;;;;;5071109;28;20048;-56
2022/07/26 09:50:15;;;;;;;15.35;2.78;;;18.50;95.50;;;;;;5071615;28;20171;-54
2022/07/26 09:53:07;;;;;;;12.38;2.17;;;18.50;95.50;;;;;;5054077;28;20689;-53
2022/07/26 09:55:35;;;;;;;12.30;2.20;;;18.60;95.10;;;;;;5070186;28;20044;-54
2022/07/26 09:58:03;;;;;;;10.15;2.20;;;18.70;95.00;;;;;;5070745;28;20069;-56
2022/07/26 10:00:30;;;;;;;12.57;2.78;;;18.80;94.80;;;;;;5071426;28;20033;-55
2022/07/26 10:02:56;;;;;;;11.75;2.63;;;18.90;94.60;;;;;;5051665;28;20169;-55
2022/07/26 10:05:21;;;;;;;13.98;1.98;;;19.00;94.00;;;;;;5052978;28;20044;-54
2022/07/26 10:07:50;;;;;;;10.07;2.17;;;19.00;93.80;;;;;;5072322;28;20047;-54
2022/07/26 10:10:27;;;;;;;10.02;1.98;;;19.10;93.50;;;;;;5068582;28;20047;-54
2022/07/26 10:12:53;;;;;;;6.88;1.65;;;19.10;93.20;;;;;;5071774;28;20048;-55
2022/07/26 10:15:40;;;;;;;8.70;1.90;;;19.20;93.10;;;;;;5058192;28;20055;-55
2022/07/26 10:18:08;;;;;;;10.45;2.00;;;19.20;93.00;;;;;;5052953;28;20075;-54
2022/07/26 10:20:40;;;;;;;6.85;2.08;;;19.40;92.50;;;;;;5072989;28;20128;-53
2022/07/26 10:23:42;;;;;;;6.75;1.67;;;19.50;92.10;;;;;;5071579;28;20047;-53
2022/07/26 10:26:10;;;;;;;8.77;1.80;;;19.60;91.90;;;;;;5070313;28;20047;-52
2022/07/26 10:28:38;;;;;;;9.68;2.05;;;19.70;91.70;;;;;;5066451;28;20482;-54
2022/07/26 10:31:19;;;;;;;15.68;2.30;;;19.90;91.50;;;;;;5068767;28;20101;-52
2022/07/26 10:33:50;;;;;;;6.90;1.83;;;20.00;91.50;;;;;;5056076;28;22085;-54
2022/07/26 10:36:30;;;;;;;8.32;2.00;;;20.00;91.10;;;;;;5040128;28;20033;-53
2022/07/26 10:39:11;;;;;;;6.50;2.00;;;20.00;90.60;;;;;;5069479;28;20044;-55
2022/07/26 10:41:42;;;;;;;9.77;2.00;;;20.10;90.70;;;;;;5071769;28;20081;-55
2022/07/26 10:44:19;;;;;;;9.93;2.08;;;20.20;89.70;;;;;;5070645;28;20083;-55
2022/07/26 10:47:17;;;;;;;8.18;1.70;;;20.30;89.30;;;;;;5068031;28;20048;-52
2022/07/26 10:49:56;;;;;;;13.38;1.95;;;20.40;88.60;;;;;;5025688;28;20452;-55
2022/07/26 10:52:24;;;;;;;8.35;1.70;;;20.50;86.40;;;;;;5071351;28;20047;-55
2022/07/26 10:54:59;;;;;;;5.28;1.60;;;20.60;85.90;;;;;;5072173;28;20126;-55
2022/07/26 10:57:26;;;;;;;11.23;1.85;;;20.70;85.20;;;;;;5070072;28;20052;-56
2022/07/26 10:59:55;;;;;;;7.78;1.70;;;20.80;84.10;;;;;;5069981;28;20047;-56
2022/07/26 11:02:23;;;;;;;9.88;2.50;;;21.10;84.80;;;;;;5071831;28;20127;-56
2022/07/26 11:04:57;;;;;;;5.10;1.85;;;21.40;83.60;;;;;;5065765;28;20052;-54
2022/07/26 11:07:23;;;;;;;9.80;1.50;;;21.50;82.20;;;;;;5052814;28;20045;-55
2022/07/26 11:09:53;;;;;;;8.13;1.30;;;21.60;81.60;;;;;;5073923;28;20048;-55
2022/07/26 11:12:20;;;;;;;5.40;0.90;;;21.70;79.80;;;;;;5075660;28;20048;-55
2022/07/26 11:14:47;;;;;;;5.25;1.48;;;21.70;79.40;;;;;;5065817;28;20032;-56
2022/07/26 11:17:27;;;;;;;6.13;1.35;;;21.70;78.60;;;;;;5053365;28;20045;-54
2022/07/26 11:19:53;;;;;;;6.22;2.08;;;21.60;78.30;;;;;;5072348;28;20044;-56
2022/07/26 11:22:19;;;;;;;6.15;1.02;;;21.60;78.00;;;;;;5069483;28;20040;-55
2022/07/26 11:24:46;;;;;;;3.33;1.10;;;21.60;76.90;;;;;;5076920;28;20497;-54
2022/07/26 11:27:12;;;;;;;8.63;1.70;;;21.70;77.00;;;;;;5056219;28;20043;-54
2022/07/26 11:29:38;;;;;;;9.68;1.60;;;21.70;77.60;;;;;;5067274;28;20137;-55
2022/07/26 11:32:06;;;;;;;6.28;1.35;;;21.70;77.20;;;;;;5069957;28;20044;-56
2022/07/26 11:34:33;;;;;;;5.78;1.20;;;21.60;76.40;;;;;;5040137;28;20044;-56
2022/07/26 11:37:01;;;;;;;4.53;1.02;;;21.80;76.40;;;;;;5068201;28;20077;-56
2022/07/26 11:39:30;;;;;;;4.50;0.90;;;22.00;75.90;;;;;;5075734;28;20044;-56
2022/07/26 11:41:58;;;;;;;3.60;1.02;;;22.00;74.70;;;;;;5072971;28;20048;-55
2022/07/26 11:44:25;;;;;;;5.75;1.17;;;22.00;74.40;;;;;;5072324;28;20109;-56
2022/07/26 11:46:51;;;;;;;5.38;1.15;;;22.00;74.90;;;;;;5067401;28;20057;-55
2022/07/26 11:49:18;;;;;;;5.20;1.00;;;22.10;75.50;;;;;;5071687;28;20073;-55
2022/07/26 11:51:55;;;;;;;5.47;1.30;;;22.10;73.90;;;;;;5070852;28;20091;-56
2022/07/26 11:54:23;;;;;;;3.45;1.02;;;22.20;73.00;;;;;;5074654;28;20375;-56
2022/07/26 11:56:57;;;;;;;5.90;1.10;;;22.20;71.80;;;;;;5072305;28;20094;-56
2022/07/26 11:59:26;;;;;;;6.53;1.20;;;22.20;71.80;;;;;;5074447;28;20494;-53
2022/07/26 12:01:53;;;;;;;5.68;1.13;;;22.30;71.30;;;;;;5073277;28;20052;-55
2022/07/26 12:04:21;;;;;;;6.75;1.20;;;22.40;71.30;;;;;;5073703;28;20083;-55
2022/07/26 12:06:48;;;;;;;3.13;1.20;;;22.50;71.50;;;;;;5071804;28;20482;-54
2022/07/26 12:09:28;;;;;;;5.95;1.30;;;22.60;71.40;;;;;;5072102;28;20072;-55
2022/07/26 12:11:54;;;;;;;5.07;1.33;;;22.60;71.70;;;;;;5071155;28;20044;-55
2022/07/26 12:14:25;;;;;;;7.43;1.50;;;22.40;71.80;;;;;;5051648;28;20461;-55
2022/07/26 12:16:51;;;;;;;5.82;1.40;;;22.20;72.20;;;;;;5072688;28;20045;-55
2022/07/26 12:19:17;;;;;;;6.70;1.48;;;22.00;72.60;;;;;;5070638;28;20525;-55
2022/07/26 12:21:47;;;;;;;6.28;1.42;;;22.00;73.30;;;;;;5072844;28;20055;-54
2022/07/26 12:24:43;;;;;;;6.15;1.30;;;22.00;72.70;;;;;;5041744;28;20064;-54
2022/07/26 12:27:19;;;;;;;6.00;1.30;;;22.00;72.90;;;;;;5072769;28;20532;-55
2022/07/26 12:30:08;;;;;;;5.20;1.48;;;21.90;72.30;;;;;;5075369;28;20068;-56
2022/07/26 12:32:44;;;;;;;5.40;1.20;;;21.90;72.40;;;;;;5063653;28;20077;-56
2022/07/26 12:35:26;;;;;;;5.18;1.33;;;21.80;72.20;;;;;;5076467;28;20482;-56
2022/07/26 12:37:52;;;;;;;8.57;1.58;;;21.80;72.60;;;;;;5046299;28;20166;-55
2022/07/26 12:40:26;;;;;;;4.55;1.20;;;21.90;72.90;;;;;;5073573;28;20119;-55
2022/07/26 12:42:58;;;;;;;11.38;1.42;;;21.90;71.80;;;;;;5072415;28;20135;-55
2022/07/26 12:45:32;;;;;;;4.47;1.30;;;21.90;71.00;;;;;;5049009;28;20055;-55